sensor_id;sensor_type;location;lat;lon;timestamp;P1;durP1;ratioP1;P2;durP2;ratioP2
1811;SDS011;904;47.814;11.134;2022-08-01T00:02:20;3.03;;;2.17;;
1811;SDS011;904;47.814;11.134;2022-08-01T00:04:47;5.17;;;2.33;;
1811;SDS011;904;47.814;11.134;2022-08-01T00:07:14;7.63;;;2.57;;
1811;SDS011;904;47.814;11.134;2022-08-01T00:09:41;2.93;;;2.07;;
1811;SDS011;904;47.814;11.134;2022-08-01T00:12:08;5.10;;;3.13;;
1811;SDS011;904;47.814;11.134;2022-08-01T00:14:37;5.50;;;2.67;;
1811;SDS011;904;47.814;11.134;2022-08-01T00:17:04;3.57;;;2.70;;
1811;SDS011;904;47.814;11.134;2022-08-01T00:19:31;8.90;;;3.57;;
1811;SDS011;904;47.814;11.134;2022-08-01T00:21:58;5.13;;;2.70;;
1811;SDS011;904;47.814;11.134;2022-08-01T00:24:25;3.90;;;3.00;;
1811;SDS011;904;47.814;11.134;2022-08-01T00:26:53;3.30;;;2.80;;
1811;SDS011;904;47.814;11.134;2022-08-01T00:29:20;4.07;;;3.00;;
1811;SDS011;904;47.814;11.134;2022-08-01T00:31:48;3.87;;;2.50;;
1811;SDS011;904;47.814;11.134;2022-08-01T00:34:17;2.87;;;2.07;;
1811;SDS011;904;47.814;11.134;2022-08-01T00:36:46;3.70;;;2.20;;
1811;SDS011;904;47.814;11.134;2022-08-01T00:39:13;3.80;;;2.63;;
1811;SDS011;904;47.814;11.134;2022-08-01T00:41:41;4.10;;;2.73;;
1811;SDS011;904;47.814;11.134;2022-08-01T00:44:08;6.63;;;2.57;;
1811;SDS011;904;47.814;11.134;2022-08-01T00:46:35;3.30;;;2.43;;
1811;SDS011;904;47.814;11.134;2022-08-01T00:49:05;5.73;;;2.40;;
1811;SDS011;904;47.814;11.134;2022-08-01T00:51:32;4.00;;;2.10;;
1811;SDS011;904;47.814;11.134;2022-08-01T00:54:01;4.00;;;2.00;;
1811;SDS011;904;47.814;11.134;2022-08-01T00:56:33;4.70;;;2.40;;
1811;SDS011;904;47.814;11.134;2022-08-01T00:59:00;5.50;;;2.70;;
1811;SDS011;904;47.814;11.134;2022-08-01T01:01:30;4.20;;;2.67;;
1811;SDS011;904;47.814;11.134;2022-08-01T01:03:57;5.40;;;2.37;;
1811;SDS011;904;47.814;11.134;2022-08-01T01:06:28;4.80;;;2.20;;
1811;SDS011;904;47.814;11.134;2022-08-01T01:09:13;3.30;;;2.33;;
1811;SDS011;904;47.814;11.134;2022-08-01T01:11:54;4.00;;;1.73;;
1811;SDS011;904;47.814;11.134;2022-08-01T01:14:29;4.23;;;2.70;;
1811;SDS011;904;47.814;11.134;2022-08-01T01:17:01;4.73;;;2.50;;
1811;SDS011;904;47.814;11.134;2022-08-01T01:19:30;3.97;;;2.20;;
1811;SDS011;904;47.814;11.134;2022-08-01T01:22:19;5.40;;;2.37;;
1811;SDS011;904;47.814;11.134;2022-08-01T01:25:02;3.30;;;2.13;;
1811;SDS011;904;47.814;11.134;2022-08-01T01:27:39;3.90;;;2.47;;
1811;SDS011;904;47.814;11.134;2022-08-01T01:30:15;5.33;;;2.63;;
1811;SDS011;904;47.814;11.134;2022-08-01T01:32:43;3.73;;;2.87;;
1811;SDS011;904;47.814;11.134;2022-08-01T01:35:15;3.60;;;2.47;;
1811;SDS011;904;47.814;11.134;2022-08-01T01:37:47;3.73;;;3.30;;
1811;SDS011;904;47.814;11.134;2022-08-01T01:40:17;4.70;;;2.73;;
1811;SDS011;904;47.814;11.134;2022-08-01T01:42:45;4.23;;;2.57;;
1811;SDS011;904;47.814;11.134;2022-08-01T01:45:15;4.13;;;3.23;;
1811;SDS011;904;47.814;11.134;2022-08-01T01:47:43;4.90;;;2.67;;
1811;SDS011;904;47.814;11.134;2022-08-01T01:50:12;5.63;;;3.23;;
1811;SDS011;904;47.814;11.134;2022-08-01T01:52:40;3.53;;;2.70;;
1811;SDS011;904;47.814;11.134;2022-08-01T01:55:10;4.17;;;2.43;;
1811;SDS011;904;47.814;11.134;2022-08-01T01:57:40;3.90;;;2.53;;
1811;SDS011;904;47.814;11.134;2022-08-01T02:00:08;4.33;;;2.70;;
1811;SDS011;904;47.814;11.134;2022-08-01T02:02:39;6.50;;;2.50;;
1811;SDS011;904;47.814;11.134;2022-08-01T02:05:08;5.00;;;2.60;;
1811;SDS011;904;47.814;11.134;2022-08-01T02:07:37;4.00;;;2.70;;
1811;SDS011;904;47.814;11.134;2022-08-01T02:10:06;3.23;;;2.50;;
1811;SDS011;904;47.814;11.134;2022-08-01T02:12:36;3.27;;;2.60;;
1811;SDS011;904;47.814;11.134;2022-08-01T02:15:06;4.00;;;3.20;;
1811;SDS011;904;47.814;11.134;2022-08-01T02:17:34;5.40;;;3.70;;
1811;SDS011;904;47.814;11.134;2022-08-01T02:20:08;7.57;;;3.50;;
1811;SDS011;904;47.814;11.134;2022-08-01T02:22:37;5.87;;;3.10;;
1811;SDS011;904;47.814;11.134;2022-08-01T02:25:10;5.13;;;3.00;;
1811;SDS011;904;47.814;11.134;2022-08-01T02:27:52;3.40;;;3.10;;
1811;SDS011;904;47.814;11.134;2022-08-01T02:30:25;5.63;;;3.47;;
1811;SDS011;904;47.814;11.134;2022-08-01T02:32:58;5.83;;;3.07;;
1811;SDS011;904;47.814;11.134;2022-08-01T02:35:29;5.27;;;2.60;;
1811;SDS011;904;47.814;11.134;2022-08-01T02:38:00;4.50;;;4.00;;
1811;SDS011;904;47.814;11.134;2022-08-01T02:40:31;6.70;;;2.70;;
1811;SDS011;904;47.814;11.134;2022-08-01T02:43:00;4.57;;;2.77;;
1811;SDS011;904;47.814;11.134;2022-08-01T02:45:29;4.10;;;2.83;;
1811;SDS011;904;47.814;11.134;2022-08-01T02:48:01;3.73;;;2.63;;
1811;SDS011;904;47.814;11.134;2022-08-01T02:50:35;3.83;;;3.10;;
1811;SDS011;904;47.814;11.134;2022-08-01T02:53:03;3.83;;;2.77;;
1811;SDS011;904;47.814;11.134;2022-08-01T02:55:35;14.03;;;3.87;;
1811;SDS011;904;47.814;11.134;2022-08-01T02:58:09;4.23;;;2.67;;
1811;SDS011;904;47.814;11.134;2022-08-01T03:00:38;4.33;;;2.70;;
1811;SDS011;904;47.814;11.134;2022-08-01T03:03:08;6.40;;;3.13;;
1811;SDS011;904;47.814;11.134;2022-08-01T03:05:36;4.07;;;2.90;;
1811;SDS011;904;47.814;11.134;2022-08-01T03:08:06;4.00;;;3.20;;
1811;SDS011;904;47.814;11.134;2022-08-01T03:10:35;4.83;;;3.00;;
1811;SDS011;904;47.814;11.134;2022-08-01T03:13:05;7.20;;;2.73;;
1811;SDS011;904;47.814;11.134;2022-08-01T03:15:36;4.97;;;3.10;;
1811;SDS011;904;47.814;11.134;2022-08-01T03:18:06;5.17;;;3.07;;
1811;SDS011;904;47.814;11.134;2022-08-01T03:20:36;5.00;;;2.40;;
1811;SDS011;904;47.814;11.134;2022-08-01T03:23:04;3.83;;;2.70;;
1811;SDS011;904;47.814;11.134;2022-08-01T03:25:34;3.47;;;3.17;;
1811;SDS011;904;47.814;11.134;2022-08-01T03:28:04;6.03;;;2.80;;
1811;SDS011;904;47.814;11.134;2022-08-01T03:30:33;4.77;;;3.87;;
1811;SDS011;904;47.814;11.134;2022-08-01T03:33:02;3.70;;;2.77;;
1811;SDS011;904;47.814;11.134;2022-08-01T03:35:33;4.20;;;2.80;;
1811;SDS011;904;47.814;11.134;2022-08-01T03:38:02;4.03;;;2.53;;
1811;SDS011;904;47.814;11.134;2022-08-01T03:40:32;3.90;;;2.73;;
1811;SDS011;904;47.814;11.134;2022-08-01T03:43:04;3.87;;;2.73;;
1811;SDS011;904;47.814;11.134;2022-08-01T03:45:34;7.07;;;2.80;;
1811;SDS011;904;47.814;11.134;2022-08-01T03:48:05;3.80;;;2.50;;
1811;SDS011;904;47.814;11.134;2022-08-01T03:50:37;3.63;;;3.10;;
1811;SDS011;904;47.814;11.134;2022-08-01T03:53:07;4.33;;;3.07;;
1811;SDS011;904;47.814;11.134;2022-08-01T03:55:36;3.73;;;3.03;;
1811;SDS011;904;47.814;11.134;2022-08-01T03:58:05;8.17;;;3.30;;
1811;SDS011;904;47.814;11.134;2022-08-01T04:00:34;6.70;;;2.73;;
1811;SDS011;904;47.814;11.134;2022-08-01T04:03:03;3.63;;;3.00;;
1811;SDS011;904;47.814;11.134;2022-08-01T04:05:30;4.80;;;2.93;;
1811;SDS011;904;47.814;11.134;2022-08-01T04:07:59;4.67;;;3.23;;
1811;SDS011;904;47.814;11.134;2022-08-01T04:10:27;7.77;;;3.30;;
1811;SDS011;904;47.814;11.134;2022-08-01T04:12:54;5.80;;;2.97;;
1811;SDS011;904;47.814;11.134;2022-08-01T04:15:21;3.90;;;3.13;;
1811;SDS011;904;47.814;11.134;2022-08-01T04:17:48;5.63;;;2.70;;
1811;SDS011;904;47.814;11.134;2022-08-01T04:20:15;7.43;;;4.00;;
1811;SDS011;904;47.814;11.134;2022-08-01T04:22:42;10.37;;;5.20;;
1811;SDS011;904;47.814;11.134;2022-08-01T04:25:12;10.40;;;4.63;;
1811;SDS011;904;47.814;11.134;2022-08-01T04:27:46;7.10;;;4.60;;
1811;SDS011;904;47.814;11.134;2022-08-01T04:30:15;9.80;;;4.97;;
1811;SDS011;904;47.814;11.134;2022-08-01T04:32:44;13.30;;;5.60;;
1811;SDS011;904;47.814;11.134;2022-08-01T04:35:12;8.80;;;4.57;;
1811;SDS011;904;47.814;11.134;2022-08-01T04:37:42;6.50;;;4.10;;
1811;SDS011;904;47.814;11.134;2022-08-01T04:40:14;6.60;;;3.80;;
1811;SDS011;904;47.814;11.134;2022-08-01T04:42:43;4.80;;;3.63;;
1811;SDS011;904;47.814;11.134;2022-08-01T04:45:10;7.03;;;3.47;;
1811;SDS011;904;47.814;11.134;2022-08-01T04:47:38;4.53;;;3.17;;
1811;SDS011;904;47.814;11.134;2022-08-01T04:50:07;6.80;;;3.27;;
1811;SDS011;904;47.814;11.134;2022-08-01T04:52:36;4.50;;;2.67;;
1811;SDS011;904;47.814;11.134;2022-08-01T04:55:04;3.30;;;2.07;;
1811;SDS011;904;47.814;11.134;2022-08-01T04:57:34;9.07;;;2.73;;
1811;SDS011;904;47.814;11.134;2022-08-01T05:00:04;4.77;;;3.00;;
1811;SDS011;904;47.814;11.134;2022-08-01T05:02:32;4.73;;;2.57;;
1811;SDS011;904;47.814;11.134;2022-08-01T05:04:59;4.10;;;2.53;;
1811;SDS011;904;47.814;11.134;2022-08-01T05:07:26;6.53;;;3.00;;
1811;SDS011;904;47.814;11.134;2022-08-01T05:09:54;4.17;;;2.70;;
1811;SDS011;904;47.814;11.134;2022-08-01T05:12:21;5.37;;;2.57;;
1811;SDS011;904;47.814;11.134;2022-08-01T05:14:49;5.93;;;2.93;;
1811;SDS011;904;47.814;11.134;2022-08-01T05:17:16;4.00;;;2.50;;
1811;SDS011;904;47.814;11.134;2022-08-01T05:19:43;5.80;;;3.00;;
1811;SDS011;904;47.814;11.134;2022-08-01T05:22:11;4.13;;;2.77;;
1811;SDS011;904;47.814;11.134;2022-08-01T05:24:38;4.17;;;2.17;;
1811;SDS011;904;47.814;11.134;2022-08-01T05:27:07;7.67;;;2.60;;
1811;SDS011;904;47.814;11.134;2022-08-01T05:29:34;3.97;;;2.80;;
1811;SDS011;904;47.814;11.134;2022-08-01T05:32:03;3.50;;;2.70;;
1811;SDS011;904;47.814;11.134;2022-08-01T05:34:30;5.77;;;3.07;;
1811;SDS011;904;47.814;11.134;2022-08-01T05:36:57;3.40;;;2.23;;
1811;SDS011;904;47.814;11.134;2022-08-01T05:39:24;4.43;;;3.13;;
1811;SDS011;904;47.814;11.134;2022-08-01T05:41:51;7.53;;;2.93;;
1811;SDS011;904;47.814;11.134;2022-08-01T05:44:18;4.33;;;2.27;;
1811;SDS011;904;47.814;11.134;2022-08-01T05:46:45;4.20;;;2.47;;
1811;SDS011;904;47.814;11.134;2022-08-01T05:49:13;4.13;;;2.70;;
1811;SDS011;904;47.814;11.134;2022-08-01T05:51:40;4.10;;;2.20;;
1811;SDS011;904;47.814;11.134;2022-08-01T05:54:07;6.23;;;2.60;;
1811;SDS011;904;47.814;11.134;2022-08-01T05:56:34;4.77;;;2.47;;
1811;SDS011;904;47.814;11.134;2022-08-01T05:59:01;4.30;;;2.90;;
1811;SDS011;904;47.814;11.134;2022-08-01T06:01:28;2.80;;;2.03;;
1811;SDS011;904;47.814;11.134;2022-08-01T06:03:55;4.23;;;2.87;;
1811;SDS011;904;47.814;11.134;2022-08-01T06:06:27;6.90;;;2.20;;
1811;SDS011;904;47.814;11.134;2022-08-01T06:09:03;3.33;;;2.83;;
1811;SDS011;904;47.814;11.134;2022-08-01T06:11:30;4.60;;;2.70;;
1811;SDS011;904;47.814;11.134;2022-08-01T06:13:58;4.43;;;2.70;;
1811;SDS011;904;47.814;11.134;2022-08-01T06:16:25;4.70;;;2.67;;
1811;SDS011;904;47.814;11.134;2022-08-01T06:18:51;4.07;;;2.90;;
1811;SDS011;904;47.814;11.134;2022-08-01T06:21:18;4.27;;;2.47;;
1811;SDS011;904;47.814;11.134;2022-08-01T06:23:47;3.70;;;2.93;;
1811;SDS011;904;47.814;11.134;2022-08-01T06:26:16;3.30;;;2.67;;
1811;SDS011;904;47.814;11.134;2022-08-01T06:28:44;4.63;;;2.53;;
1811;SDS011;904;47.814;11.134;2022-08-01T06:31:11;5.33;;;2.50;;
1811;SDS011;904;47.814;11.134;2022-08-01T06:33:39;5.03;;;2.40;;
1811;SDS011;904;47.814;11.134;2022-08-01T06:36:06;4.67;;;3.23;;
1811;SDS011;904;47.814;11.134;2022-08-01T06:38:34;12.53;;;6.63;;
1811;SDS011;904;47.814;11.134;2022-08-01T06:41:02;5.57;;;3.80;;
1811;SDS011;904;47.814;11.134;2022-08-01T06:43:29;4.17;;;3.23;;
1811;SDS011;904;47.814;11.134;2022-08-01T06:45:56;6.87;;;3.03;;
1811;SDS011;904;47.814;11.134;2022-08-01T06:48:23;4.63;;;2.70;;
1811;SDS011;904;47.814;11.134;2022-08-01T06:50:51;5.03;;;3.00;;
1811;SDS011;904;47.814;11.134;2022-08-01T06:53:32;3.63;;;2.20;;
1811;SDS011;904;47.814;11.134;2022-08-01T06:56:01;6.67;;;2.90;;
1811;SDS011;904;47.814;11.134;2022-08-01T06:58:30;3.00;;;2.20;;
1811;SDS011;904;47.814;11.134;2022-08-01T07:01:01;4.33;;;2.53;;
1811;SDS011;904;47.814;11.134;2022-08-01T07:03:30;3.30;;;2.30;;
1811;SDS011;904;47.814;11.134;2022-08-01T07:05:57;4.27;;;2.77;;
1811;SDS011;904;47.814;11.134;2022-08-01T07:08:24;3.87;;;2.90;;
1811;SDS011;904;47.814;11.134;2022-08-01T07:10:51;6.57;;;2.50;;
1811;SDS011;904;47.814;11.134;2022-08-01T07:13:20;2.97;;;2.40;;
1811;SDS011;904;47.814;11.134;2022-08-01T07:15:50;6.67;;;2.87;;
1811;SDS011;904;47.814;11.134;2022-08-01T07:18:20;5.00;;;3.10;;
1811;SDS011;904;47.814;11.134;2022-08-01T07:20:48;3.40;;;2.73;;
1811;SDS011;904;47.814;11.134;2022-08-01T07:23:15;4.03;;;2.63;;
1811;SDS011;904;47.814;11.134;2022-08-01T07:25:47;3.40;;;3.00;;
1811;SDS011;904;47.814;11.134;2022-08-01T07:28:15;4.10;;;2.87;;
1811;SDS011;904;47.814;11.134;2022-08-01T07:30:49;4.37;;;3.03;;
1811;SDS011;904;47.814;11.134;2022-08-01T07:33:17;6.60;;;2.80;;
1811;SDS011;904;47.814;11.134;2022-08-01T07:35:44;3.13;;;2.60;;
1811;SDS011;904;47.814;11.134;2022-08-01T07:38:11;4.23;;;2.80;;
1811;SDS011;904;47.814;11.134;2022-08-01T07:40:39;4.07;;;2.90;;
1811;SDS011;904;47.814;11.134;2022-08-01T07:43:06;5.00;;;3.17;;
1811;SDS011;904;47.814;11.134;2022-08-01T07:45:37;4.50;;;3.30;;
1811;SDS011;904;47.814;11.134;2022-08-01T07:48:07;5.57;;;3.30;;
1811;SDS011;904;47.814;11.134;2022-08-01T07:50:36;3.40;;;2.80;;
1811;SDS011;904;47.814;11.134;2022-08-01T07:53:04;8.00;;;3.03;;
1811;SDS011;904;47.814;11.134;2022-08-01T07:55:32;4.70;;;3.80;;
1811;SDS011;904;47.814;11.134;2022-08-01T07:58:04;3.60;;;2.60;;
1811;SDS011;904;47.814;11.134;2022-08-01T08:00:38;4.07;;;2.53;;
1811;SDS011;904;47.814;11.134;2022-08-01T08:03:06;3.10;;;2.57;;
1811;SDS011;904;47.814;11.134;2022-08-01T08:05:38;5.70;;;2.57;;
1811;SDS011;904;47.814;11.134;2022-08-01T08:08:05;4.53;;;2.50;;
1811;SDS011;904;47.814;11.134;2022-08-01T08:10:36;6.03;;;2.40;;
1811;SDS011;904;47.814;11.134;2022-08-01T08:13:03;5.70;;;2.90;;
1811;SDS011;904;47.814;11.134;2022-08-01T08:15:31;4.23;;;3.03;;
1811;SDS011;904;47.814;11.134;2022-08-01T08:17:59;2.93;;;2.23;;
1811;SDS011;904;47.814;11.134;2022-08-01T08:20:26;5.37;;;3.10;;
1811;SDS011;904;47.814;11.134;2022-08-01T08:22:54;5.43;;;2.93;;
1811;SDS011;904;47.814;11.134;2022-08-01T08:25:25;3.77;;;2.80;;
1811;SDS011;904;47.814;11.134;2022-08-01T08:28:00;3.43;;;2.57;;
1811;SDS011;904;47.814;11.134;2022-08-01T08:30:27;5.30;;;3.07;;
1811;SDS011;904;47.814;11.134;2022-08-01T08:32:55;4.20;;;3.00;;
1811;SDS011;904;47.814;11.134;2022-08-01T08:35:24;4.00;;;2.87;;
1811;SDS011;904;47.814;11.134;2022-08-01T08:37:51;4.63;;;2.37;;
1811;SDS011;904;47.814;11.134;2022-08-01T08:40:20;3.80;;;2.47;;
1811;SDS011;904;47.814;11.134;2022-08-01T08:42:58;3.80;;;2.30;;
1811;SDS011;904;47.814;11.134;2022-08-01T08:45:28;4.10;;;2.30;;
1811;SDS011;904;47.814;11.134;2022-08-01T08:47:56;3.10;;;2.30;;
1811;SDS011;904;47.814;11.134;2022-08-01T08:50:25;3.70;;;2.90;;
1811;SDS011;904;47.814;11.134;2022-08-01T08:52:52;2.93;;;2.47;;
1811;SDS011;904;47.814;11.134;2022-08-01T08:55:21;3.17;;;2.37;;
1811;SDS011;904;47.814;11.134;2022-08-01T08:57:50;4.20;;;2.40;;
1811;SDS011;904;47.814;11.134;2022-08-01T09:00:18;5.13;;;3.00;;
1811;SDS011;904;47.814;11.134;2022-08-01T09:02:49;4.30;;;2.90;;
1811;SDS011;904;47.814;11.134;2022-08-01T09:05:22;4.20;;;2.33;;
1811;SDS011;904;47.814;11.134;2022-08-01T09:07:52;3.87;;;2.57;;
1811;SDS011;904;47.814;11.134;2022-08-01T09:10:27;3.97;;;2.90;;
1811;SDS011;904;47.814;11.134;2022-08-01T09:13:04;4.30;;;2.50;;
1811;SDS011;904;47.814;11.134;2022-08-01T09:15:45;6.13;;;2.53;;
1811;SDS011;904;47.814;11.134;2022-08-01T09:18:32;3.20;;;2.30;;
1811;SDS011;904;47.814;11.134;2022-08-01T09:21:12;4.40;;;2.33;;
1811;SDS011;904;47.814;11.134;2022-08-01T09:23:44;3.73;;;2.33;;
1811;SDS011;904;47.814;11.134;2022-08-01T09:26:13;3.47;;;2.23;;
1811;SDS011;904;47.814;11.134;2022-08-01T09:28:47;3.20;;;2.43;;
1811;SDS011;904;47.814;11.134;2022-08-01T09:31:15;4.50;;;2.47;;
1811;SDS011;904;47.814;11.134;2022-08-01T09:33:46;3.73;;;2.23;;
1811;SDS011;904;47.814;11.134;2022-08-01T09:36:18;3.60;;;2.60;;
1811;SDS011;904;47.814;11.134;2022-08-01T09:38:46;3.27;;;1.90;;
1811;SDS011;904;47.814;11.134;2022-08-01T09:41:13;2.73;;;1.90;;
1811;SDS011;904;47.814;11.134;2022-08-01T09:43:40;2.87;;;1.30;;
1811;SDS011;904;47.814;11.134;2022-08-01T09:46:14;3.13;;;2.10;;
1811;SDS011;904;47.814;11.134;2022-08-01T09:48:54;4.50;;;2.40;;
1811;SDS011;904;47.814;11.134;2022-08-01T09:51:33;3.10;;;1.97;;
1811;SDS011;904;47.814;11.134;2022-08-01T09:54:04;2.60;;;1.60;;
1811;SDS011;904;47.814;11.134;2022-08-01T09:56:45;2.27;;;1.70;;
1811;SDS011;904;47.814;11.134;2022-08-01T09:59:12;2.60;;;1.80;;
1811;SDS011;904;47.814;11.134;2022-08-01T10:01:44;2.53;;;1.43;;
1811;SDS011;904;47.814;11.134;2022-08-01T10:04:12;3.33;;;1.83;;
1811;SDS011;904;47.814;11.134;2022-08-01T10:06:44;2.83;;;1.63;;
1811;SDS011;904;47.814;11.134;2022-08-01T10:09:14;3.20;;;2.20;;
1811;SDS011;904;47.814;11.134;2022-08-01T10:11:52;5.23;;;1.70;;
1811;SDS011;904;47.814;11.134;2022-08-01T10:14:21;3.00;;;2.00;;
1811;SDS011;904;47.814;11.134;2022-08-01T10:16:53;3.53;;;1.80;;
1811;SDS011;904;47.814;11.134;2022-08-01T10:19:23;3.90;;;1.70;;
1811;SDS011;904;47.814;11.134;2022-08-01T10:21:53;3.43;;;1.57;;
1811;SDS011;904;47.814;11.134;2022-08-01T10:24:21;2.60;;;1.80;;
1811;SDS011;904;47.814;11.134;2022-08-01T10:26:51;5.70;;;1.70;;
1811;SDS011;904;47.814;11.134;2022-08-01T10:29:20;2.80;;;1.67;;
1811;SDS011;904;47.814;11.134;2022-08-01T10:31:47;2.30;;;1.30;;
1811;SDS011;904;47.814;11.134;2022-08-01T10:34:16;6.83;;;1.50;;
1811;SDS011;904;47.814;11.134;2022-08-01T10:36:45;3.40;;;1.90;;
1811;SDS011;904;47.814;11.134;2022-08-01T10:39:14;4.17;;;1.90;;
1811;SDS011;904;47.814;11.134;2022-08-01T10:41:42;6.40;;;3.00;;
1811;SDS011;904;47.814;11.134;2022-08-01T10:44:09;3.37;;;2.33;;
1811;SDS011;904;47.814;11.134;2022-08-01T10:46:37;3.40;;;2.27;;
1811;SDS011;904;47.814;11.134;2022-08-01T10:49:07;3.43;;;2.00;;
1811;SDS011;904;47.814;11.134;2022-08-01T10:51:39;4.33;;;2.40;;
1811;SDS011;904;47.814;11.134;2022-08-01T10:54:08;3.90;;;2.60;;
1811;SDS011;904;47.814;11.134;2022-08-01T10:56:42;3.20;;;2.43;;
1811;SDS011;904;47.814;11.134;2022-08-01T10:59:14;4.73;;;2.03;;
1811;SDS011;904;47.814;11.134;2022-08-01T11:01:47;4.50;;;2.10;;
1811;SDS011;904;47.814;11.134;2022-08-01T11:04:26;2.97;;;1.90;;
1811;SDS011;904;47.814;11.134;2022-08-01T11:07:03;3.43;;;2.23;;
1811;SDS011;904;47.814;11.134;2022-08-01T11:09:37;3.30;;;2.00;;
1811;SDS011;904;47.814;11.134;2022-08-01T11:12:11;3.07;;;2.20;;
1811;SDS011;904;47.814;11.134;2022-08-01T11:17:52;6.87;;;1.73;;
1811;SDS011;904;47.814;11.134;2022-08-01T11:20:20;3.27;;;1.80;;
1811;SDS011;904;47.814;11.134;2022-08-01T11:28:46;3.17;;;1.60;;
1811;SDS011;904;47.814;11.134;2022-08-01T11:31:28;3.23;;;1.93;;
1811;SDS011;904;47.814;11.134;2022-08-01T11:33:57;3.40;;;2.33;;
1811;SDS011;904;47.814;11.134;2022-08-01T11:36:25;3.67;;;1.93;;
1811;SDS011;904;47.814;11.134;2022-08-01T11:39:15;3.17;;;1.53;;
1811;SDS011;904;47.814;11.134;2022-08-01T11:41:44;4.03;;;3.03;;
1811;SDS011;904;47.814;11.134;2022-08-01T11:44:15;2.70;;;1.47;;
1811;SDS011;904;47.814;11.134;2022-08-01T11:46:59;6.93;;;1.33;;
1811;SDS011;904;47.814;11.134;2022-08-01T11:49:31;3.10;;;1.50;;
1811;SDS011;904;47.814;11.134;2022-08-01T11:52:25;4.00;;;1.93;;
1811;SDS011;904;47.814;11.134;2022-08-01T11:54:54;3.30;;;1.47;;
1811;SDS011;904;47.814;11.134;2022-08-01T11:57:23;2.63;;;1.30;;
1811;SDS011;904;47.814;11.134;2022-08-01T11:59:53;2.60;;;1.60;;
1811;SDS011;904;47.814;11.134;2022-08-01T12:02:22;2.33;;;1.17;;
1811;SDS011;904;47.814;11.134;2022-08-01T12:04:53;3.10;;;1.30;;
1811;SDS011;904;47.814;11.134;2022-08-01T12:07:22;2.40;;;1.40;;
1811;SDS011;904;47.814;11.134;2022-08-01T12:09:56;2.20;;;1.20;;
1811;SDS011;904;47.814;11.134;2022-08-01T12:12:33;2.37;;;1.27;;
1811;SDS011;904;47.814;11.134;2022-08-01T12:15:04;2.20;;;1.30;;
1811;SDS011;904;47.814;11.134;2022-08-01T12:17:33;3.63;;;1.50;;
1811;SDS011;904;47.814;11.134;2022-08-01T12:20:03;5.27;;;1.80;;
1811;SDS011;904;47.814;11.134;2022-08-01T12:22:31;2.07;;;1.17;;
1811;SDS011;904;47.814;11.134;2022-08-01T12:25:04;2.70;;;1.60;;
1811;SDS011;904;47.814;11.134;2022-08-01T12:27:32;2.53;;;1.67;;
1811;SDS011;904;47.814;11.134;2022-08-01T12:30:00;3.37;;;2.23;;
1811;SDS011;904;47.814;11.134;2022-08-01T12:32:29;3.10;;;1.50;;
1811;SDS011;904;47.814;11.134;2022-08-01T12:35:00;3.77;;;2.20;;
1811;SDS011;904;47.814;11.134;2022-08-01T12:37:28;2.67;;;1.40;;
1811;SDS011;904;47.814;11.134;2022-08-01T12:39:56;3.10;;;1.50;;
1811;SDS011;904;47.814;11.134;2022-08-01T12:42:24;2.30;;;1.50;;
1811;SDS011;904;47.814;11.134;2022-08-01T12:44:52;2.90;;;1.20;;
1811;SDS011;904;47.814;11.134;2022-08-01T12:47:19;4.30;;;1.43;;
1811;SDS011;904;47.814;11.134;2022-08-01T12:49:49;4.13;;;2.50;;
1811;SDS011;904;47.814;11.134;2022-08-01T12:52:16;2.90;;;2.03;;
1811;SDS011;904;47.814;11.134;2022-08-01T12:54:59;5.50;;;1.73;;
1811;SDS011;904;47.814;11.134;2022-08-01T12:57:32;4.30;;;1.40;;
1811;SDS011;904;47.814;11.134;2022-08-01T13:00:13;3.73;;;1.27;;
1811;SDS011;904;47.814;11.134;2022-08-01T13:02:44;2.10;;;1.10;;
1811;SDS011;904;47.814;11.134;2022-08-01T13:05:13;2.37;;;1.23;;
1811;SDS011;904;47.814;11.134;2022-08-01T13:07:42;2.83;;;1.10;;
1811;SDS011;904;47.814;11.134;2022-08-01T13:10:12;3.03;;;1.10;;
1811;SDS011;904;47.814;11.134;2022-08-01T13:12:40;3.63;;;1.77;;
1811;SDS011;904;47.814;11.134;2022-08-01T13:15:18;2.67;;;1.60;;
1811;SDS011;904;47.814;11.134;2022-08-01T13:17:48;2.80;;;1.37;;
1811;SDS011;904;47.814;11.134;2022-08-01T13:20:27;3.47;;;1.20;;
1811;SDS011;904;47.814;11.134;2022-08-01T13:23:13;2.60;;;1.00;;
1811;SDS011;904;47.814;11.134;2022-08-01T13:25:51;2.00;;;0.97;;
1811;SDS011;904;47.814;11.134;2022-08-01T13:28:20;3.53;;;1.20;;
1811;SDS011;904;47.814;11.134;2022-08-01T13:30:52;1.80;;;1.00;;
1811;SDS011;904;47.814;11.134;2022-08-01T13:33:20;2.67;;;1.57;;
1811;SDS011;904;47.814;11.134;2022-08-01T13:35:50;2.63;;;1.20;;
1811;SDS011;904;47.814;11.134;2022-08-01T13:38:20;2.20;;;1.00;;
1811;SDS011;904;47.814;11.134;2022-08-01T13:41:08;3.60;;;1.40;;
1811;SDS011;904;47.814;11.134;2022-08-01T13:43:35;2.43;;;1.10;;
1811;SDS011;904;47.814;11.134;2022-08-01T13:46:05;8.67;;;1.63;;
1811;SDS011;904;47.814;11.134;2022-08-01T13:48:32;5.40;;;3.03;;
1811;SDS011;904;47.814;11.134;2022-08-01T13:51:01;2.70;;;1.80;;
1811;SDS011;904;47.814;11.134;2022-08-01T13:53:27;2.77;;;1.10;;
1811;SDS011;904;47.814;11.134;2022-08-01T13:55:55;3.70;;;0.90;;
1811;SDS011;904;47.814;11.134;2022-08-01T13:58:22;1.87;;;1.00;;
1811;SDS011;904;47.814;11.134;2022-08-01T14:00:49;2.10;;;1.10;;
1811;SDS011;904;47.814;11.134;2022-08-01T14:03:16;2.97;;;1.10;;
1811;SDS011;904;47.814;11.134;2022-08-01T14:05:45;3.20;;;1.03;;
1811;SDS011;904;47.814;11.134;2022-08-01T14:08:14;2.00;;;1.00;;
1811;SDS011;904;47.814;11.134;2022-08-01T14:10:41;2.50;;;1.30;;
1811;SDS011;904;47.814;11.134;2022-08-01T14:13:08;3.80;;;1.37;;
1811;SDS011;904;47.814;11.134;2022-08-01T14:15:40;2.93;;;1.30;;
1811;SDS011;904;47.814;11.134;2022-08-01T14:18:07;2.63;;;1.30;;
1811;SDS011;904;47.814;11.134;2022-08-01T14:20:35;2.70;;;1.00;;
1811;SDS011;904;47.814;11.134;2022-08-01T14:23:03;2.30;;;1.00;;
1811;SDS011;904;47.814;11.134;2022-08-01T14:25:31;3.00;;;1.40;;
1811;SDS011;904;47.814;11.134;2022-08-01T14:27:58;2.20;;;1.30;;
1811;SDS011;904;47.814;11.134;2022-08-01T14:30:25;2.20;;;1.27;;
1811;SDS011;904;47.814;11.134;2022-08-01T14:32:52;4.43;;;2.10;;
1811;SDS011;904;47.814;11.134;2022-08-01T14:35:19;3.60;;;2.13;;
1811;SDS011;904;47.814;11.134;2022-08-01T14:37:46;2.77;;;1.07;;
1811;SDS011;904;47.814;11.134;2022-08-01T14:40:13;2.30;;;1.20;;
1811;SDS011;904;47.814;11.134;2022-08-01T14:42:42;2.40;;;1.33;;
1811;SDS011;904;47.814;11.134;2022-08-01T14:45:10;2.13;;;1.30;;
1811;SDS011;904;47.814;11.134;2022-08-01T14:47:39;2.90;;;1.77;;
1811;SDS011;904;47.814;11.134;2022-08-01T14:50:10;2.70;;;1.90;;
1811;SDS011;904;47.814;11.134;2022-08-01T14:52:38;3.70;;;1.87;;
1811;SDS011;904;47.814;11.134;2022-08-01T14:55:06;4.50;;;1.53;;
1811;SDS011;904;47.814;11.134;2022-08-01T14:57:34;3.17;;;1.57;;
1811;SDS011;904;47.814;11.134;2022-08-01T15:00:04;6.43;;;1.70;;
1811;SDS011;904;47.814;11.134;2022-08-01T15:02:33;4.00;;;1.77;;
1811;SDS011;904;47.814;11.134;2022-08-01T15:05:00;3.27;;;1.40;;
1811;SDS011;904;47.814;11.134;2022-08-01T15:07:27;3.80;;;1.80;;
1811;SDS011;904;47.814;11.134;2022-08-01T15:09:54;3.10;;;1.90;;
1811;SDS011;904;47.814;11.134;2022-08-01T15:12:21;2.30;;;1.80;;
1811;SDS011;904;47.814;11.134;2022-08-01T15:14:48;2.70;;;1.60;;
1811;SDS011;904;47.814;11.134;2022-08-01T15:17:16;3.17;;;1.70;;
1811;SDS011;904;47.814;11.134;2022-08-01T15:19:45;4.00;;;1.47;;
1811;SDS011;904;47.814;11.134;2022-08-01T15:22:12;2.60;;;1.90;;
1811;SDS011;904;47.814;11.134;2022-08-01T15:24:39;4.63;;;2.10;;
1811;SDS011;904;47.814;11.134;2022-08-01T15:27:07;5.47;;;1.87;;
1811;SDS011;904;47.814;11.134;2022-08-01T15:29:34;2.80;;;1.83;;
1811;SDS011;904;47.814;11.134;2022-08-01T15:32:02;3.73;;;1.70;;
1811;SDS011;904;47.814;11.134;2022-08-01T15:34:31;5.17;;;2.07;;
1811;SDS011;904;47.814;11.134;2022-08-01T15:36:58;3.20;;;1.70;;
1811;SDS011;904;47.814;11.134;2022-08-01T15:39:25;3.63;;;2.00;;
1811;SDS011;904;47.814;11.134;2022-08-01T15:41:52;5.23;;;1.80;;